createdAt,value
2022-11-01T00:00:48.733Z,57.08
2022-11-01T00:03:16.369Z,56.83
2022-11-01T00:05:43.926Z,56.36
2022-11-01T00:08:13.215Z,56.47
2022-11-01T00:10:40.881Z,56.69
2022-11-01T00:13:08.431Z,56.32
2022-11-01T00:15:36.392Z,56.45
2022-11-01T00:18:04.250Z,56.30
2022-11-01T00:20:33.729Z,56.53
2022-11-01T00:23:01.927Z,56.68
2022-11-01T00:25:29.766Z,56.29
2022-11-01T00:27:57.371Z,56.26
2022-11-01T00:30:24.903Z,56.72
2022-11-01T00:32:53.008Z,56.48
2022-11-01T00:35:20.987Z,56.57
2022-11-01T00:37:48.555Z,57.25
2022-11-01T00:40:16.221Z,56.83
2022-11-01T00:42:43.758Z,57.30
2022-11-01T00:45:11.344Z,57.03
2022-11-01T00:47:39.299Z,57.06
2022-11-01T00:50:06.866Z,57.66
2022-11-01T00:52:34.432Z,57.35
2022-11-01T00:55:02.009Z,57.61
2022-11-01T00:57:29.910Z,57.59
2022-11-01T00:59:57.855Z,57.50
2022-11-01T01:02:25.516Z,58.14
2022-11-01T01:04:53.143Z,58.24
2022-11-01T01:07:20.687Z,58.37
2022-11-01T01:09:48.297Z,58.55
2022-11-01T01:12:16.222Z,58.73
2022-11-01T01:14:43.750Z,59.39
2022-11-01T01:17:11.369Z,59.76
2022-11-01T01:19:39.268Z,59.70
2022-11-01T01:22:06.810Z,60.14
2022-11-01T01:24:34.566Z,60.08
2022-11-01T01:27:02.135Z,60.14
2022-11-01T01:29:29.671Z,60.79
2022-11-01T01:31:57.301Z,60.34
2022-11-01T01:34:24.865Z,61.05
2022-11-01T01:36:52.419Z,61.30
2022-11-01T01:39:20.008Z,61.94
2022-11-01T01:41:59.704Z,61.79
2022-11-01T01:44:27.312Z,61.61
2022-11-01T01:46:54.858Z,61.78
2022-11-01T01:49:22.368Z,62.30
2022-11-01T01:51:49.977Z,62.22
2022-11-01T01:54:17.541Z,62.42
2022-11-01T01:56:45.541Z,62.59
2022-11-01T01:59:14.314Z,62.70
2022-11-01T02:01:41.976Z,62.68
2022-11-01T02:04:10.043Z,62.80
2022-11-01T02:06:37.587Z,63.09
2022-11-01T02:09:07.701Z,62.72
2022-11-01T02:11:35.632Z,63.14
2022-11-01T02:14:03.210Z,63.20
2022-11-01T02:16:30.778Z,63.06
2022-11-01T02:18:58.324Z,63.41
2022-11-01T02:21:27.213Z,63.13
2022-11-01T02:23:55.204Z,63.11
2022-11-01T02:26:23.098Z,63.22
2022-11-01T02:28:50.692Z,63.15
2022-11-01T02:31:18.205Z,63.14
2022-11-01T02:33:45.747Z,62.46
2022-11-01T02:36:13.557Z,63.23
2022-11-01T02:38:41.084Z,63.14
2022-11-01T02:41:08.582Z,62.76
2022-11-01T02:43:36.213Z,62.98
2022-11-01T02:46:26.206Z,63.54
2022-11-01T02:48:53.741Z,63.20
2022-11-01T02:51:21.296Z,63.07
2022-11-01T02:53:48.827Z,63.47
2022-11-01T02:56:16.373Z,63.21
2022-11-01T02:58:44.786Z,63.32
2022-11-01T03:01:15.407Z,63.61
2022-11-01T03:03:43.098Z,63.22
2022-11-01T03:06:10.629Z,63.69
2022-11-01T03:08:38.636Z,62.94
2022-11-01T03:11:06.911Z,63.14
2022-11-01T03:13:34.463Z,62.95
2022-11-01T03:16:02.041Z,63.51
2022-11-01T03:18:29.651Z,63.24
2022-11-01T03:20:59.388Z,63.11
2022-11-01T03:23:27.364Z,63.08
2022-11-01T03:25:54.952Z,63.46
2022-11-01T03:28:22.949Z,63.67
2022-11-01T03:30:50.502Z,63.48
2022-11-01T03:33:20.596Z,63.29
2022-11-01T03:35:48.556Z,63.91
2022-11-01T03:38:16.124Z,64.27
2022-11-01T03:40:44.075Z,64.51
2022-11-01T03:43:11.609Z,63.96
2022-11-01T03:45:40.527Z,64.66
2022-11-01T03:48:08.548Z,64.38
2022-11-01T03:50:36.409Z,64.71
2022-11-01T03:53:03.981Z,65.03
2022-11-01T03:55:31.570Z,64.62
2022-11-01T03:58:00.804Z,64.89
2022-11-01T04:00:28.986Z,65.07
2022-11-01T04:02:56.749Z,64.83
2022-11-01T04:05:24.333Z,65.16
2022-11-01T04:07:52.511Z,65.37
2022-11-01T04:10:20.122Z,65.22
2022-11-01T04:12:48.820Z,65.67
2022-11-01T04:15:33.641Z,65.23
2022-11-01T04:18:18.550Z,65.62
2022-11-01T04:20:49.094Z,66.13
2022-11-01T04:23:17.030Z,65.91
2022-11-01T04:25:44.590Z,65.81
2022-11-01T04:28:12.227Z,66.25
2022-11-01T04:30:39.845Z,66.44
2022-11-01T04:33:10.568Z,66.68
2022-11-01T04:35:38.702Z,66.55
2022-11-01T04:38:06.668Z,66.73
2022-11-01T04:40:34.511Z,66.82
2022-11-01T04:43:02.106Z,66.31
2022-11-01T04:45:31.326Z,66.17
2022-11-01T04:47:59.534Z,66.37
2022-11-01T04:50:27.363Z,66.72
2022-11-01T04:52:54.894Z,66.62
2022-11-01T04:55:22.823Z,66.81
2022-11-01T04:57:50.435Z,66.91
2022-11-01T05:00:18.381Z,66.93
2022-11-01T05:02:45.948Z,66.85
2022-11-01T05:05:13.606Z,67.22
2022-11-01T05:07:41.172Z,67.28
2022-11-01T05:10:10.363Z,67.65
2022-11-01T05:12:37.984Z,67.74
2022-11-01T05:15:05.660Z,67.42
2022-11-01T05:17:33.560Z,67.91
2022-11-01T05:20:01.194Z,67.70
2022-11-01T05:22:28.773Z,68.10
2022-11-01T05:24:56.699Z,68.30
2022-11-01T05:27:24.308Z,68.43
2022-11-01T05:29:51.893Z,68.29
2022-11-01T05:32:19.452Z,68.14
2022-11-01T05:34:49.932Z,69.11
2022-11-01T05:37:17.896Z,68.47
2022-11-01T05:39:45.446Z,68.64
2022-11-01T05:42:13.099Z,68.56
2022-11-01T05:44:40.708Z,69.15
2022-11-01T05:47:09.660Z,68.84
2022-11-01T05:49:39.145Z,69.12
2022-11-01T05:52:06.724Z,69.44
2022-11-01T05:54:34.332Z,68.91
2022-11-01T05:57:01.955Z,69.44
2022-11-01T05:59:29.545Z,68.93
2022-11-01T06:01:57.653Z,69.43
2022-11-01T06:04:25.398Z,69.70
2022-11-01T06:06:52.963Z,69.05
2022-11-01T06:09:20.581Z,69.64
2022-11-01T06:11:49.869Z,69.43
2022-11-01T06:14:17.891Z,69.29
2022-11-01T06:16:45.515Z,69.96
2022-11-01T06:19:13.160Z,69.61
2022-11-01T06:21:40.797Z,70.02
2022-11-01T06:24:11.972Z,69.43
2022-11-01T06:26:39.913Z,69.81
2022-11-01T06:29:07.586Z,69.92
2022-11-01T06:31:35.235Z,70.05
2022-11-01T06:34:02.887Z,70.15
2022-11-01T06:36:32.048Z,69.93
2022-11-01T06:38:59.661Z,70.12
2022-11-01T06:41:27.246Z,70.15
2022-11-01T06:43:54.825Z,69.36
2022-11-01T06:46:22.851Z,69.41
2022-11-01T06:48:50.480Z,69.98
2022-11-01T06:51:18.416Z,69.87
2022-11-01T06:53:46.041Z,69.22
2022-11-01T06:56:13.718Z,69.75
2022-11-01T06:58:41.338Z,69.50
2022-11-01T07:01:09.062Z,68.97
2022-11-01T07:03:37.628Z,68.79
2022-11-01T07:06:05.259Z,69.12
2022-11-01T07:08:32.886Z,68.79
2022-11-01T07:11:00.747Z,68.74
2022-11-01T07:13:33.879Z,68.79
2022-11-01T07:16:02.157Z,68.54
2022-11-01T07:18:30.670Z,68.21
2022-11-01T07:20:58.268Z,68.00
2022-11-01T07:23:25.903Z,67.94
2022-11-01T07:25:54.105Z,67.89
2022-11-01T07:28:22.099Z,68.34
2022-11-01T07:30:49.787Z,68.01
2022-11-01T07:33:17.427Z,67.58
2022-11-01T07:35:45.052Z,67.39
2022-11-01T07:38:14.798Z,67.93
2022-11-01T07:40:42.942Z,67.68
2022-11-01T07:43:10.604Z,67.96
2022-11-01T07:45:38.412Z,68.27
2022-11-01T07:48:06.190Z,68.43
2022-11-01T07:50:34.379Z,67.85
2022-11-01T07:53:02.873Z,68.36
2022-11-01T07:55:30.626Z,68.51
2022-11-01T07:57:58.302Z,69.12
2022-11-01T08:00:26.214Z,68.83
2022-11-01T08:02:53.996Z,68.32
2022-11-01T08:05:22.033Z,68.67
2022-11-01T08:07:49.881Z,69.06
2022-11-01T08:10:17.595Z,69.00
2022-11-01T08:12:45.582Z,69.11
2022-11-01T08:15:13.430Z,69.15
2022-11-01T08:17:41.436Z,68.96
2022-11-01T08:20:09.201Z,68.64
2022-11-01T08:22:37.059Z,68.32
2022-11-01T08:25:04.880Z,68.83
2022-11-01T08:27:34.617Z,68.43
2022-11-01T08:30:03.717Z,67.60
2022-11-01T08:32:31.436Z,67.05
2022-11-01T08:34:59.511Z,67.05
2022-11-01T08:37:27.287Z,66.96
2022-11-01T08:39:57.287Z,66.29
2022-11-01T08:42:25.345Z,66.12
2022-11-01T08:44:53.153Z,66.28
2022-11-01T08:47:20.875Z,65.96
2022-11-01T08:49:48.705Z,65.59
2022-11-01T08:52:18.130Z,65.61
2022-11-01T08:54:46.511Z,65.85
2022-11-01T08:57:16.173Z,65.71
2022-11-01T08:59:43.893Z,65.76
2022-11-01T09:02:11.728Z,65.15
2022-11-01T09:04:41.878Z,65.13
2022-11-01T09:07:10.164Z,64.90
2022-11-01T09:09:37.972Z,64.85
2022-11-01T09:12:07.043Z,64.32
2022-11-01T09:14:36.615Z,63.87
2022-11-01T09:17:05.800Z,63.63
2022-11-01T09:19:34.402Z,62.90
2022-11-01T09:22:02.364Z,62.52
2022-11-01T09:24:30.088Z,62.10
2022-11-01T09:26:57.971Z,62.19
2022-11-01T09:29:27.345Z,62.00
2022-11-01T09:31:55.407Z,61.84
2022-11-01T09:34:23.188Z,61.83
2022-11-01T09:36:51.260Z,61.40
2022-11-01T09:39:22.250Z,61.23
2022-11-01T09:41:50.095Z,61.41
2022-11-01T09:44:18.680Z,60.91
2022-11-01T09:46:46.573Z,59.76
2022-11-01T09:49:15.045Z,58.61
2022-11-01T09:51:42.972Z,56.38
2022-11-01T09:54:11.502Z,54.68
2022-11-01T09:56:39.726Z,53.99
2022-11-01T09:59:07.582Z,51.81
2022-11-01T10:01:40.547Z,51.75
2022-11-01T10:04:09.127Z,50.96
2022-11-01T10:06:40.850Z,50.15
2022-11-01T10:09:08.892Z,48.74
2022-11-01T10:11:36.950Z,48.52
2022-11-01T10:14:04.878Z,47.90
2022-11-01T10:16:32.742Z,47.31
2022-11-01T10:19:01.105Z,46.98
2022-11-01T10:21:29.881Z,46.44
2022-11-01T10:23:57.851Z,46.96
2022-11-01T10:26:26.072Z,47.44
2022-11-01T10:28:53.901Z,48.28
2022-11-01T10:31:22.280Z,49.17
2022-11-01T10:33:50.235Z,49.62
2022-11-01T10:36:18.138Z,49.41
2022-11-01T10:41:36.081Z,49.64
2022-11-01T10:44:03.918Z,49.07
2022-11-01T10:46:32.329Z,48.73
2022-11-01T10:49:00.255Z,49.34
2022-11-01T10:51:28.233Z,49.75
2022-11-01T10:53:59.454Z,49.65
2022-11-01T10:56:27.405Z,49.93
2022-11-01T10:58:55.367Z,49.73
2022-11-01T11:01:23.487Z,50.34
2022-11-01T11:03:51.590Z,51.17
2022-11-01T11:06:21.094Z,51.08
2022-11-01T11:08:48.951Z,51.30
2022-11-01T11:11:16.848Z,51.18
2022-11-01T11:13:44.741Z,51.44
2022-11-01T11:16:12.595Z,50.96
2022-11-01T11:18:44.194Z,50.53
2022-11-01T11:21:12.099Z,50.42
2022-11-01T11:23:39.948Z,50.72
2022-11-01T11:26:07.690Z,51.00
2022-11-01T11:28:36.026Z,51.14
2022-11-01T11:31:07.288Z,51.42
2022-11-01T11:33:35.087Z,51.40
2022-11-01T11:36:03.159Z,50.50
2022-11-01T11:38:31.020Z,49.96
2022-11-01T11:40:58.959Z,49.67
2022-11-01T11:43:30.901Z,49.99
2022-11-01T11:45:58.727Z,50.39
2022-11-01T11:48:26.614Z,50.21
2022-11-01T11:50:54.898Z,50.12
2022-11-01T11:53:23.535Z,50.13
2022-11-01T11:55:53.423Z,49.94
2022-11-01T11:58:21.280Z,49.87
2022-11-01T12:00:49.106Z,49.63
2022-11-01T12:03:17.817Z,48.75
2022-11-01T12:05:45.601Z,48.54
2022-11-01T12:08:14.168Z,48.89
2022-11-01T12:10:42.069Z,48.81
2022-11-01T12:13:10.052Z,49.30
2022-11-01T12:15:41.268Z,48.96
2022-11-01T12:18:12.933Z,49.40
2022-11-01T12:20:43.950Z,49.06
2022-11-01T12:23:11.873Z,49.06
2022-11-01T12:25:39.755Z,49.19
2022-11-01T12:28:07.507Z,48.79
2022-11-01T12:30:35.552Z,48.86
2022-11-01T12:33:03.921Z,48.85
2022-11-01T12:35:31.916Z,49.28
2022-11-01T12:38:00.109Z,48.65
2022-11-01T12:40:28.410Z,48.55
2022-11-01T12:42:56.371Z,48.42
2022-11-01T12:45:25.477Z,48.58
2022-11-01T12:47:53.330Z,49.13
2022-11-01T12:50:21.076Z,48.51
2022-11-01T12:52:48.957Z,48.40
2022-11-01T12:55:19.823Z,47.40
2022-11-01T12:57:52.555Z,46.97
2022-11-01T13:00:21.348Z,47.16
2022-11-01T13:02:49.222Z,47.04
2022-11-01T13:05:17.204Z,47.39
2022-11-01T13:07:45.150Z,47.31
2022-11-01T13:10:15.275Z,47.94
2022-11-01T13:12:43.395Z,47.56
2022-11-01T13:15:11.433Z,47.63
2022-11-01T13:17:39.541Z,47.38
2022-11-01T13:20:07.465Z,47.75
2022-11-01T13:22:36.724Z,47.83
2022-11-01T13:25:04.658Z,47.38
2022-11-01T13:27:32.596Z,47.24
2022-11-01T13:30:00.414Z,46.98
2022-11-01T13:32:28.240Z,46.81
2022-11-01T13:34:57.357Z,46.66
2022-11-01T13:37:25.422Z,46.74
2022-11-01T13:39:53.460Z,46.73
2022-11-01T13:42:22.437Z,47.21
2022-11-01T13:44:50.300Z,46.95
2022-11-01T13:47:18.546Z,46.80
2022-11-01T13:49:46.326Z,47.01
2022-11-01T13:52:14.169Z,47.17
2022-11-01T13:54:42.122Z,46.95
2022-11-01T13:57:10.211Z,46.79
2022-11-01T13:59:38.864Z,46.11
2022-11-01T14:02:06.828Z,46.18
2022-11-01T14:04:34.929Z,45.73
2022-11-01T14:07:04.993Z,45.60
2022-11-01T14:09:33.027Z,45.29
2022-11-01T14:12:01.795Z,45.39
2022-11-01T14:14:29.661Z,45.46
2022-11-01T14:16:57.485Z,45.93
2022-11-01T14:19:27.617Z,45.39
2022-11-01T14:21:55.790Z,45.32
2022-11-01T14:24:30.702Z,44.96
2022-11-01T14:27:03.766Z,44.40
2022-11-01T14:29:33.069Z,44.20
2022-11-01T14:32:01.589Z,43.77
2022-11-01T14:34:29.842Z,44.39
2022-11-01T14:36:57.661Z,43.97
2022-11-01T14:39:26.198Z,44.61
2022-11-01T14:41:56.336Z,44.35
2022-11-01T14:44:26.091Z,44.71
2022-11-01T14:46:54.019Z,45.54
2022-11-01T14:49:21.813Z,45.79
2022-11-01T14:51:50.203Z,46.65
2022-11-01T14:54:18.093Z,47.47
2022-11-01T14:56:46.107Z,47.92
2022-11-01T14:59:15.641Z,48.21
2022-11-01T15:01:43.807Z,48.69
2022-11-01T15:04:12.288Z,49.46
2022-11-01T15:06:40.035Z,49.72
2022-11-01T15:09:07.920Z,49.67
2022-11-01T15:11:38.447Z,49.96
2022-11-01T15:14:06.394Z,50.40
2022-11-01T15:16:34.387Z,50.71
2022-11-01T15:19:02.600Z,50.49
2022-11-01T15:21:31.488Z,50.84
2022-11-01T15:24:00.035Z,51.03
2022-11-01T15:26:28.228Z,50.86
2022-11-01T15:28:56.051Z,51.22
2022-11-01T15:31:23.837Z,51.33
2022-11-01T15:33:51.687Z,51.83
2022-11-01T15:36:20.346Z,51.99
2022-11-01T15:38:48.256Z,51.63
2022-11-01T15:41:16.095Z,52.14
2022-11-01T15:43:43.873Z,52.11
2022-11-01T15:46:11.729Z,52.21
2022-11-01T15:48:44.556Z,52.31
2022-11-01T15:51:12.393Z,52.11
2022-11-01T15:53:40.790Z,52.25
2022-11-01T15:56:08.872Z,51.90
2022-11-01T15:58:36.675Z,52.11
2022-11-01T16:01:06.992Z,51.99
2022-11-01T16:03:35.115Z,52.08
2022-11-01T16:06:02.872Z,52.64
2022-11-01T16:08:30.899Z,52.42
2022-11-01T16:10:58.731Z,52.23
2022-11-01T16:13:27.024Z,53.05
2022-11-01T16:15:54.919Z,53.01
2022-11-01T16:18:22.916Z,53.02
2022-11-01T16:20:52.904Z,52.87
2022-11-01T16:23:20.643Z,52.68
2022-11-01T16:25:48.859Z,53.46
2022-11-01T16:28:16.740Z,53.53
2022-11-01T16:30:45.684Z,53.40
2022-11-01T16:33:13.987Z,53.27
2022-11-01T16:35:41.900Z,53.98
2022-11-01T16:38:10.190Z,53.71
2022-11-01T16:40:39.203Z,53.56
2022-11-01T16:43:07.214Z,53.91
2022-11-01T16:45:34.991Z,53.95
2022-11-01T16:48:03.192Z,54.16
2022-11-01T16:50:32.726Z,54.04
2022-11-01T16:53:00.660Z,53.85
2022-11-01T16:55:30.427Z,54.06
2022-11-01T16:57:59.225Z,54.24
2022-11-01T17:00:27.845Z,54.43
2022-11-01T17:02:59.878Z,54.65
2022-11-01T17:05:27.983Z,54.95
2022-11-01T17:07:56.056Z,54.85
2022-11-01T17:10:25.825Z,54.62
2022-11-01T17:12:54.934Z,54.45
2022-11-01T17:15:24.527Z,55.14
2022-11-01T17:17:53.081Z,54.64
2022-11-01T17:20:23.724Z,54.93
2022-11-01T17:22:52.770Z,55.36
2022-11-01T17:25:23.276Z,55.18
2022-11-01T17:27:57.851Z,55.09
2022-11-01T17:30:27.239Z,55.13
2022-11-01T17:32:57.816Z,55.51
2022-11-01T17:35:30.186Z,55.93
2022-11-01T17:38:09.749Z,55.82
2022-11-01T17:40:39.805Z,55.46
2022-11-01T17:43:07.612Z,55.73
2022-11-01T17:45:35.408Z,56.09
2022-11-01T17:48:07.895Z,55.59
2022-11-01T17:50:35.743Z,56.25
2022-11-01T17:53:03.763Z,55.98
2022-11-01T17:55:33.897Z,56.21
2022-11-01T17:58:03.183Z,56.26
2022-11-01T18:00:37.772Z,56.37
2022-11-01T18:03:06.647Z,56.09
2022-11-01T18:05:35.662Z,56.35
2022-11-01T18:08:08.282Z,56.58
2022-11-01T18:10:40.353Z,56.12
2022-11-01T18:13:09.796Z,56.78
2022-11-01T18:15:40.565Z,56.75
2022-11-01T18:18:10.618Z,56.45
2022-11-01T18:20:45.903Z,57.19
2022-11-01T18:23:14.828Z,56.85
2022-11-01T18:25:44.140Z,56.47
2022-11-01T18:28:14.058Z,57.13
2022-11-01T18:30:43.260Z,57.16
2022-11-01T18:33:12.096Z,56.88
2022-11-01T18:35:41.550Z,56.94
2022-11-01T18:38:10.751Z,57.31
2022-11-01T18:40:39.918Z,57.10
2022-11-01T18:43:09.588Z,57.27
2022-11-01T18:46:04.336Z,57.70
2022-11-01T18:48:30.002Z,57.50
2022-11-01T18:51:04.629Z,57.69
2022-11-01T18:53:37.888Z,58.24
2022-11-01T18:56:08.969Z,57.59
2022-11-01T18:58:38.917Z,57.64
2022-11-01T19:01:09.179Z,58.41
2022-11-01T19:03:38.673Z,58.45
2022-11-01T19:06:08.988Z,58.09
2022-11-01T19:08:38.531Z,58.64
2022-11-01T19:11:07.889Z,58.21
2022-11-01T19:13:37.095Z,58.82
2022-11-01T19:16:10.716Z,58.24
2022-11-01T19:18:42.400Z,58.82
2022-11-01T19:21:12.552Z,58.41
2022-11-01T19:23:41.741Z,59.01
2022-11-01T19:26:13.264Z,59.36
2022-11-01T19:28:42.859Z,59.17
2022-11-01T19:31:12.002Z,59.26
2022-11-01T19:33:41.348Z,58.81
2022-11-01T19:36:15.809Z,59.78
2022-11-01T19:38:45.998Z,59.20
2022-11-01T19:41:15.138Z,59.55
2022-11-01T19:43:44.697Z,59.89
2022-11-01T19:46:18.580Z,59.47
2022-11-01T19:48:47.883Z,59.62
2022-11-01T19:51:17.229Z,60.13
2022-11-01T19:53:46.281Z,59.70
2022-11-01T19:56:19.379Z,59.69
2022-11-01T19:58:49.939Z,59.61
2022-11-01T20:01:20.264Z,59.82
2022-11-01T20:03:49.660Z,60.10
2022-11-01T20:06:24.281Z,59.87
2022-11-01T20:08:53.359Z,59.80
2022-11-01T20:11:21.380Z,60.34
2022-11-01T20:13:49.312Z,60.27
2022-11-01T20:16:17.519Z,60.55
2022-11-01T20:18:48.693Z,60.57
2022-11-01T20:21:16.554Z,60.79
2022-11-01T20:23:44.749Z,60.63
2022-11-01T20:26:13.020Z,60.52
2022-11-01T20:28:40.926Z,61.09
2022-11-01T20:31:08.735Z,60.63
2022-11-01T20:33:36.588Z,60.71
2022-11-01T20:36:10.761Z,60.58
2022-11-01T20:38:39.158Z,61.05
2022-11-01T20:41:07.026Z,60.79
2022-11-01T20:43:36.412Z,61.04
2022-11-01T20:46:05.503Z,61.06
2022-11-01T20:48:33.511Z,61.50
2022-11-01T20:51:01.504Z,61.36
2022-11-01T20:53:29.961Z,61.21
2022-11-01T20:55:58.651Z,61.02
2022-11-01T20:58:27.102Z,61.40
2022-11-01T21:00:54.925Z,61.37
2022-11-01T21:03:22.839Z,60.79
2022-11-01T21:05:51.293Z,61.12
2022-11-01T21:08:23.247Z,61.04
2022-11-01T21:10:51.134Z,61.17
2022-11-01T21:13:21.539Z,60.89
2022-11-01T21:15:49.812Z,61.09
2022-11-01T21:18:17.830Z,61.10
2022-11-01T21:20:46.342Z,61.05
2022-11-01T21:23:14.226Z,61.17
2022-11-01T21:25:42.096Z,60.96
2022-11-01T21:28:10.005Z,61.43
2022-11-01T21:30:37.830Z,61.52
2022-11-01T21:33:06.164Z,61.21
2022-11-01T21:35:34.747Z,61.58
2022-11-01T21:38:02.876Z,61.33
2022-11-01T21:40:31.015Z,61.49
2022-11-01T21:42:58.855Z,61.12
2022-11-01T21:45:28.214Z,61.68
2022-11-01T21:47:57.658Z,61.68
2022-11-01T21:50:25.532Z,61.52
2022-11-01T21:52:53.298Z,61.84
2022-11-01T21:55:21.148Z,61.83
2022-11-01T21:57:50.205Z,61.38
2022-11-01T22:00:18.014Z,61.72
2022-11-01T22:02:46.305Z,61.53
2022-11-01T22:05:14.077Z,61.31
2022-11-01T22:07:41.877Z,61.83
2022-11-01T22:10:12.176Z,61.87
2022-11-01T22:12:39.916Z,61.88
2022-11-01T22:15:07.657Z,61.93
2022-11-01T22:17:35.435Z,61.75
2022-11-01T22:20:03.219Z,61.84
2022-11-01T22:22:31.275Z,62.26
2022-11-01T22:24:59.495Z,62.66
2022-11-01T22:27:27.261Z,62.25
2022-11-01T22:29:54.948Z,62.46
2022-11-01T22:32:22.794Z,62.00
2022-11-01T22:34:53.189Z,62.52
2022-11-01T22:37:20.867Z,62.34
2022-11-01T22:39:52.876Z,62.73
2022-11-01T22:42:22.064Z,62.51
2022-11-01T22:44:49.873Z,62.40
2022-11-01T22:47:18.571Z,62.65
2022-11-01T22:49:46.359Z,62.68
2022-11-01T22:52:15.904Z,63.19
2022-11-01T22:54:43.550Z,63.21
2022-11-01T22:57:11.250Z,62.81
2022-11-01T22:59:41.387Z,62.73
2022-11-01T23:02:09.218Z,63.04
2022-11-01T23:04:37.113Z,63.06
2022-11-01T23:07:05.659Z,63.65
2022-11-01T23:09:33.337Z,62.92
2022-11-01T23:12:18.615Z,63.63
2022-11-01T23:14:47.751Z,63.27
2022-11-01T23:17:15.960Z,63.85
2022-11-01T23:19:43.675Z,63.00
2022-11-01T23:22:11.368Z,63.31
2022-11-01T23:24:39.425Z,63.47
2022-11-01T23:27:08.213Z,63.44
2022-11-01T23:29:36.286Z,63.48
2022-11-01T23:32:03.978Z,63.29
2022-11-01T23:34:31.626Z,63.60
2022-11-01T23:36:59.609Z,63.77
2022-11-01T23:39:29.097Z,63.37
2022-11-01T23:41:56.732Z,63.57
2022-11-01T23:44:24.370Z,63.19
2022-11-01T23:46:53.045Z,63.18
2022-11-01T23:49:21.014Z,63.49
2022-11-01T23:51:53.504Z,63.12
2022-11-01T23:54:21.131Z,63.05
2022-11-01T23:56:48.774Z,63.20
2022-11-01T23:59:16.344Z,62.90
